Time;durP1;ratioP1;P1;durP2;ratioP2;P2;SDS_P1;SDS_P2;PMS_P1;PMS_P2;Temp;Humidity;BMP_temperature;BMP_pressure;BME280_temperature;BME280_humidity;BME280_pressure;Samples;Min_cycle;Max_cycle;Signal;HPM_P1;HPM_P2
2023/09/14 00:01:54;;;;;;;1.30;1.20;;;;;;;16.80;94.54;99047.69;4154609;28;20212;-47
2023/09/14 00:03:56;;;;;;;1.42;1.33;;;;;;;16.80;94.53;99043.00;4149928;28;20246;-45
2023/09/14 00:05:58;;;;;;;1.00;1.00;;;;;;;16.69;94.14;99038.59;4150903;28;20317;-46
2023/09/14 00:08:00;;;;;;;1.30;1.20;;;;;;;16.70;94.59;99043.00;4134494;28;20357;-46
2023/09/14 00:10:02;;;;;;;2.42;1.25;;;;;;;16.67;94.58;99039.97;4137028;28;21713;-45
2023/09/14 00:12:05;;;;;;;0.70;0.70;;;;;;;16.59;94.96;99035.84;4137044;28;20225;-46
2023/09/14 00:14:07;;;;;;;1.13;1.02;;;;;;;16.33;97.65;99034.13;4152853;28;20681;-47
2023/09/14 00:16:08;;;;;;;0.93;0.90;;;;;;;16.36;97.07;99028.03;4135142;28;20209;-46
2023/09/14 00:18:10;;;;;;;1.85;1.27;;;;;;;16.46;96.99;99036.38;4150726;28;20208;-47
2023/09/14 00:20:21;;;;;;;1.30;1.20;;;;;;;16.58;96.64;99042.47;4135471;28;20213;-46
2023/09/14 00:22:23;;;;;;;0.80;0.80;;;;;;;16.57;96.40;99043.53;4138216;28;20209;-48
2023/09/14 00:24:25;;;;;;;0.73;0.65;;;;;;;16.56;96.16;99039.13;4134596;28;20229;-46
2023/09/14 00:26:26;;;;;;;1.27;1.10;;;;;;;16.57;96.01;99040.78;4137377;28;20224;-47
2023/09/14 00:28:29;;;;;;;0.95;0.88;;;;;;;16.51;96.10;99035.56;4135050;28;20743;-46
2023/09/14 00:30:30;;;;;;;0.93;0.75;;;;;;;16.46;95.65;99033.63;4139030;28;20868;-47
2023/09/14 00:32:38;;;;;;;0.82;0.82;;;;;;;16.51;96.10;99036.38;4152980;28;20292;-48
2023/09/14 00:34:40;;;;;;;0.68;0.68;;;;;;;16.47;95.89;99035.28;4154205;28;20240;-47
2023/09/14 00:36:42;;;;;;;0.88;0.88;;;;;;;16.48;95.70;99036.91;4121136;28;20206;-46
2023/09/14 00:38:44;;;;;;;0.73;0.73;;;;;;;16.48;95.66;99047.13;4134148;28;20720;-48
2023/09/14 00:40:48;;;;;;;4.15;0.85;;;;;;;16.34;95.88;99035.78;4137061;28;20766;-47
2023/09/14 00:42:53;;;;;;;1.00;0.80;;;;;;;16.30;96.13;99042.94;4151905;28;20209;-47
2023/09/14 00:44:55;;;;;;;0.77;0.77;;;;;;;16.30;96.42;99040.19;4136394;28;20240;-47
2023/09/14 00:46:57;;;;;;;2.03;1.30;;;;;;;16.20;96.71;99033.81;4135789;28;20209;-48
2023/09/14 00:49:00;;;;;;;1.05;0.75;;;;;;;16.23;96.44;99038.81;4151252;28;20877;-46
2023/09/14 00:51:03;;;;;;;1.30;1.20;;;;;;;16.19;96.50;99044.03;4139030;28;20209;-46
2023/09/14 00:53:08;;;;;;;1.80;1.70;;;;;;;16.17;96.66;99046.22;4134811;28;21142;-46
2023/09/14 00:55:11;;;;;;;0.93;0.93;;;;;;;16.23;96.76;99033.28;4134851;28;20225;-46
2023/09/14 00:57:12;;;;;;;1.17;0.70;;;;;;;16.20;96.71;99033.81;4138066;28;20675;-45
2023/09/14 00:59:14;;;;;;;2.00;1.20;;;;;;;16.19;96.82;99033.00;4147705;28;20656;-47
2023/09/14 01:01:16;;;;;;;0.80;0.80;;;;;;;16.14;96.82;99041.25;4151321;28;20580;-46
2023/09/14 01:03:18;;;;;;;1.60;1.10;;;;;;;16.11;96.54;99033.53;4146299;28;21365;-46
2023/09/14 01:05:21;;;;;;;1.35;1.25;;;;;;;16.18;96.75;99025.81;4150063;28;20803;-47
2023/09/14 01:07:23;;;;;;;1.50;1.42;;;;;;;16.14;96.60;99035.75;4133832;28;20603;-47
2023/09/14 01:09:24;;;;;;;1.00;0.70;;;;;;;16.03;96.79;99036.81;4139419;28;20217;-49
2023/09/14 01:11:26;;;;;;;1.35;1.00;;;;;;;16.01;97.08;99036.25;4137573;28;20224;-48
2023/09/14 01:13:39;;;;;;;0.52;0.52;;;;;;;15.98;97.11;99035.97;4138042;28;20268;-46
2023/09/14 01:15:45;;;;;;;0.77;0.70;;;;;;;15.96;97.20;99032.66;4121110;28;20205;-48
2023/09/14 01:18:07;;;;;;;1.05;1.00;;;;;;;15.91;97.47;99036.22;4138369;28;20623;-48
2023/09/14 01:20:30;;;;;;;1.92;1.30;;;;;;;15.85;97.14;99026.28;4136340;28;20201;-48
2023/09/14 01:22:42;;;;;;;1.42;1.23;;;;;;;15.76;97.54;99027.91;4134543;28;20570;-46
2023/09/14 01:24:52;;;;;;;0.98;0.95;;;;;;;15.82;97.55;99037.84;4115680;28;20230;-46
2023/09/14 01:26:54;;;;;;;1.67;1.33;;;;;;;15.78;97.38;99031.25;4142999;28;20703;-46
2023/09/14 01:28:56;;;;;;;2.17;0.93;;;;;;;15.72;97.17;99037.00;4154002;28;20205;-46
2023/09/14 01:30:58;;;;;;;1.00;0.85;;;;;;;15.68;97.14;99036.72;4132352;28;20213;-48
2023/09/14 01:33:00;;;;;;;1.00;0.88;;;;;;;15.76;97.48;99043.66;4149666;28;20217;-47
2023/09/14 01:35:03;;;;;;;1.40;1.30;;;;;;;15.83;96.82;99045.03;4141103;28;20229;-47
2023/09/14 01:37:05;;;;;;;2.05;1.27;;;;;;;15.76;96.53;99044.44;4156804;28;20208;-46
2023/09/14 01:39:07;;;;;;;1.00;1.00;;;;;;;15.64;96.36;99035.56;4155924;28;20209;-46
2023/09/14 01:41:10;;;;;;;1.40;1.10;;;;;;;15.61;96.68;99041.66;4139355;28;20653;-46
2023/09/14 01:43:14;;;;;;;1.65;1.55;;;;;;;15.53;96.74;99041.31;4153408;28;20689;-48
2023/09/14 01:45:15;;;;;;;1.10;1.10;;;;;;;15.54;96.76;99043.81;4155260;28;20860;-45
2023/09/14 01:47:18;;;;;;;1.17;1.08;;;;;;;15.45;97.22;99042.69;4151964;28;20339;-47
2023/09/14 01:49:20;;;;;;;0.82;0.70;;;;;;;15.35;97.48;99056.41;4134652;28;20252;-46
2023/09/14 01:51:22;;;;;;;1.35;1.23;;;;;;;15.35;97.48;99061.94;4154540;28;20699;-46
2023/09/14 01:53:24;;;;;;;1.48;1.38;;;;;;;15.45;97.83;99047.34;4135579;28;20213;-46
2023/09/14 01:55:25;;;;;;;1.92;1.75;;;;;;;15.34;98.88;99049.25;4133866;28;20232;-46
2023/09/14 01:57:27;;;;;;;1.20;1.10;;;;;;;15.30;98.84;99050.81;4183934;23;20729;-92
2023/09/14 01:59:29;;;;;;;0.93;0.93;;;;;;;15.36;98.95;99043.47;4131954;28;20214;-91
2023/09/14 02:01:40;;;;;;;1.20;1.20;;;;;;;15.36;98.72;99049.78;4175963;28;20643;-95
2023/09/14 02:03:41;;;;;;;0.80;0.80;;;;;;;15.32;98.82;99048.69;4163251;28;20216;-90
2023/09/14 02:05:46;;;;;;;1.60;1.48;;;;;;;15.26;98.79;99055.22;4149246;28;20284;-91
2023/09/14 02:07:49;;;;;;;1.35;1.23;;;;;;;15.24;98.73;99049.13;4151116;28;20215;-91
2023/09/14 02:09:53;;;;;;;0.80;0.80;;;;;;;15.21;98.91;99057.94;4146772;28;20233;-92
2023/09/14 02:11:59;;;;;;;1.00;0.98;;;;;;;15.23;98.65;99055.75;4136956;28;20245;-90
2023/09/14 02:14:12;;;;;;;1.02;0.93;;;;;;;15.23;98.55;99055.75;4150145;28;20212;-93
2023/09/14 02:16:13;;;;;;;0.70;0.70;;;;;;;15.21;97.97;99052.44;4135401;28;20206;-90
2023/09/14 02:18:19;;;;;;;2.47;2.28;;;;;;;15.30;98.21;99053.59;4134509;28;20336;-93
2023/09/14 02:20:21;;;;;;;1.17;1.05;;;;;;;15.26;97.96;99055.22;4137345;28;20202;-92
2023/09/14 02:22:23;;;;;;;0.98;0.98;;;;;;;15.21;97.70;99057.09;4140388;28;20252;-91
2023/09/14 02:24:33;;;;;;;0.77;0.77;;;;;;;15.19;97.39;99057.41;4166602;28;20209;-92
2023/09/14 02:26:42;;;;;;;1.10;1.10;;;;;;;15.23;97.48;99050.22;4151227;28;20236;-93
2023/09/14 02:28:46;;;;;;;1.85;1.55;;;;;;;15.16;96.83;99057.09;4141339;28;20285;-92
2023/09/14 02:31:07;;;;;;;0.93;0.93;;;;;;;15.14;97.09;99057.34;4134963;28;20222;-94
2023/09/14 02:33:11;;;;;;;2.00;1.83;;;;;;;15.05;96.83;99060.88;4163233;28;20344;-89
2023/09/14 02:35:19;;;;;;;0.98;0.88;;;;;;;15.10;96.80;99061.72;4148205;28;20296;-92
2023/09/14 02:37:24;;;;;;;0.52;0.52;;;;;;;14.95;96.83;99058.88;4149096;28;20296;-92
2023/09/14 02:39:29;;;;;;;1.05;0.95;;;;;;;15.02;97.07;99064.19;4149460;28;20316;-93
2023/09/14 02:41:34;;;;;;;0.90;0.90;;;;;;;14.96;97.40;99065.22;4149771;28;20208;-92
2023/09/14 02:43:36;;;;;;;1.38;1.30;;;;;;;14.89;97.25;99059.13;4151121;28;20824;-91
2023/09/14 02:45:38;;;;;;;1.30;1.20;;;;;;;14.77;97.48;99058.47;4133861;28;20293;-91
2023/09/14 02:47:55;;;;;;;1.48;1.15;;;;;;;14.83;98.26;99061.00;4134605;28;20214;-90
2023/09/14 02:49:58;;;;;;;0.70;0.70;;;;;;;14.91;98.35;99062.44;4167295;28;20204;-91
2023/09/14 02:52:02;;;;;;;0.88;0.85;;;;;;;14.94;98.20;99067.41;4150067;28;20230;-91
2023/09/14 02:54:04;;;;;;;1.98;1.05;;;;;;;14.88;98.48;99055.53;4145862;28;20209;-91
2023/09/14 02:56:09;;;;;;;0.90;0.90;;;;;;;14.73;99.39;99060.91;4147754;28;20264;-92
2023/09/14 02:58:25;;;;;;;0.82;0.82;;;;;;;14.76;99.36;99060.38;4148540;28;20654;-91
2023/09/14 03:00:29;;;;;;;0.63;0.60;;;;;;;14.68;99.31;99062.78;4130414;28;20214;-91
2023/09/14 03:02:34;;;;;;;4.88;1.23;;;;;;;14.65;99.31;99058.66;4132189;28;20222;-91
2023/09/14 03:04:46;;;;;;;0.82;0.82;;;;;;;14.71;99.08;99071.34;4133253;28;20340;-90
2023/09/14 03:06:54;;;;;;;14.13;1.38;;;;;;;14.60;99.34;99072.38;4150585;28;20251;-92
2023/09/14 03:08:58;;;;;;;1.02;0.95;;;;;;;14.58;99.15;99066.28;4147292;28;20205;-89
2023/09/14 03:11:03;;;;;;;0.85;0.75;;;;;;;14.53;99.34;99070.94;4147265;28;20209;-90
2023/09/14 03:13:05;;;;;;;1.15;0.90;;;;;;;14.55;99.42;99064.06;4131032;23;20744;-46
2023/09/14 03:15:07;;;;;;;1.02;0.98;;;;;;;14.51;99.41;99073.94;4120891;28;20234;-47
2023/09/14 03:17:09;;;;;;;0.90;0.90;;;;;;;14.50;99.52;99083.28;4118811;28;20221;-46
2023/09/14 03:19:14;;;;;;;0.95;0.82;;;;;;;14.48;99.50;99079.97;4133873;28;20208;-46
2023/09/14 03:21:23;;;;;;;0.80;0.80;;;;;;;14.45;99.32;99079.66;4120758;28;20279;-46
2023/09/14 03:23:25;;;;;;;1.33;0.95;;;;;;;14.36;99.69;99079.31;4120779;28;20232;-46
2023/09/14 03:25:27;;;;;;;1.63;1.48;;;;;;;14.35;99.91;99077.66;4119325;28;20744;-46
2023/09/14 03:27:29;;;;;;;0.93;0.90;;;;;;;14.37;100.00;99089.22;4119012;28;20258;-48
2023/09/14 03:29:31;;;;;;;1.17;1.10;;;;;;;14.38;99.78;99090.88;4121152;28;20210;-47
2023/09/14 03:31:32;;;;;;;1.20;1.10;;;;;;;14.31;99.65;99092.19;4117501;28;20217;-48
2023/09/14 03:33:34;;;;;;;2.17;2.08;;;;;;;14.36;99.25;99082.06;4137429;28;20276;-47
2023/09/14 03:35:36;;;;;;;1.05;0.95;;;;;;;14.43;99.26;99093.69;4123484;28;20213;-48
2023/09/14 03:37:38;;;;;;;1.35;1.30;;;;;;;14.35;99.20;99096.06;4104983;28;20210;-47
2023/09/14 03:39:42;;;;;;;0.75;0.75;;;;;;;14.28;98.80;99093.53;4119207;28;20214;-46
2023/09/14 03:41:44;;;;;;;1.13;0.88;;;;;;;14.35;99.11;99096.94;4131396;28;20754;-49
2023/09/14 03:43:46;;;;;;;0.90;0.90;;;;;;;14.28;98.48;99101.81;4146209;28;20209;-46
2023/09/14 03:45:48;;;;;;;5.07;1.30;;;;;;;14.29;98.50;99094.41;4114128;28;20230;-46
2023/09/14 03:47:51;;;;;;;0.95;0.93;;;;;;;14.27;98.28;99093.81;4117717;28;20213;-46
2023/09/14 03:49:53;;;;;;;1.10;1.10;;;;;;;14.22;97.99;99102.84;4147069;28;20213;-45
2023/09/14 03:51:54;;;;;;;0.80;0.80;;;;;;;14.21;98.35;99100.34;4135142;28;20213;-46
2023/09/14 03:53:56;;;;;;;1.25;1.13;;;;;;;14.21;98.60;99098.44;4116898;28;20226;-48
2023/09/14 03:56:01;;;;;;;1.25;1.15;;;;;;;14.08;99.00;99090.53;4134414;28;20202;-47
2023/09/14 03:58:03;;;;;;;0.85;0.85;;;;;;;14.22;98.86;99088.25;4116699;28;20615;-46
2023/09/14 04:00:11;;;;;;;0.80;0.80;;;;;;;14.11;99.05;99094.72;4135702;28;20213;-46
2023/09/14 04:02:13;;;;;;;1.85;1.75;;;;;;;14.06;99.42;99098.25;4132147;28;20292;-48
2023/09/14 04:04:15;;;;;;;0.80;0.80;;;;;;;14.01;99.01;99100.94;4117196;28;20709;-48
2023/09/14 04:06:16;;;;;;;1.15;1.05;;;;;;;13.98;99.29;99106.94;4116190;28;20286;-47
2023/09/14 04:08:18;;;;;;;1.48;1.38;;;;;;;13.98;99.02;99101.41;4117564;28;20222;-47
2023/09/14 04:10:20;;;;;;;9.52;1.00;;;;;;;13.95;99.20;99104.72;4132288;28;20218;-46
2023/09/14 04:12:22;;;;;;;0.93;0.93;;;;;;;13.88;99.27;99101.31;4116405;28;20333;-48
2023/09/14 04:14:24;;;;;;;1.20;0.85;;;;;;;13.91;99.11;99106.28;4117139;28;20229;-47
2023/09/14 04:16:29;;;;;;;1.05;1.05;;;;;;;13.88;98.77;99108.72;4133632;28;20209;-48
2023/09/14 04:18:38;;;;;;;1.70;1.33;;;;;;;13.85;99.00;99109.25;4149257;28;20209;-48
2023/09/14 04:20:40;;;;;;;0.80;0.80;;;;;;;13.85;98.57;99112.84;4120854;28;20711;-47
2023/09/14 04:22:43;;;;;;;0.90;0.90;;;;;;;13.89;98.15;99115.91;4120031;28;20210;-46
2023/09/14 04:24:44;;;;;;;1.55;1.48;;;;;;;13.84;98.29;99121.34;4119592;28;20729;-46
2023/09/14 04:26:46;;;;;;;1.17;0.68;;;;;;;13.70;100.00;99114.56;4118322;28;20261;-47
2023/09/14 04:28:48;;;;;;;2.85;1.23;;;;;;;13.71;100.00;99122.53;4117548;28;20279;-49
2023/09/14 04:30:53;;;;;;;0.82;0.82;;;;;;;13.79;100.00;99113.88;4135084;28;20240;-46
2023/09/14 04:32:55;;;;;;;0.75;0.75;;;;;;;13.73;100.00;99120.41;4136375;28;20217;-46
2023/09/14 04:34:57;;;;;;;0.75;0.73;;;;;;;13.69;100.00;99116.47;4117507;28;21644;-46
2023/09/14 04:36:59;;;;;;;1.40;1.30;;;;;;;13.77;100.00;99113.28;4131418;28;20209;-46
2023/09/14 04:39:01;;;;;;;0.82;0.82;;;;;;;13.77;100.00;99116.03;4116751;28;20240;-49
2023/09/14 04:41:04;;;;;;;0.98;0.85;;;;;;;13.71;100.00;99117.03;4132355;28;20206;-47
2023/09/14 04:43:05;;;;;;;1.20;1.10;;;;;;;13.42;100.00;99122.97;4134003;28;20253;-46
2023/09/14 04:45:08;;;;;;;0.52;0.52;;;;;;;13.49;100.00;99123.66;4135644;28;20707;-48
2023/09/14 04:47:09;;;;;;;0.88;0.88;;;;;;;13.45;100.00;99126.06;4150668;28;20260;-46
2023/09/14 04:49:14;;;;;;;1.08;0.80;;;;;;;13.48;100.00;99127.44;4117795;28;20224;-46
2023/09/14 04:51:17;;;;;;;1.02;1.02;;;;;;;13.47;100.00;99132.13;4115831;28;20222;-46
2023/09/14 04:53:18;;;;;;;3.85;0.90;;;;;;;13.44;100.00;99132.63;4132406;28;20323;-49
2023/09/14 04:55:21;;;;;;;0.75;0.75;;;;;;;13.43;100.00;99130.97;4117638;28;20229;-47
2023/09/14 04:57:24;;;;;;;0.85;0.85;;;;;;;13.44;100.00;99126.31;4118761;28;20214;-47
2023/09/14 04:59:26;;;;;;;1.55;1.20;;;;;;;13.44;100.00;99131.81;4149463;28;20672;-46
2023/09/14 05:01:28;;;;;;;1.00;1.00;;;;;;;13.42;100.00;99133.97;4134925;28;20216;-46
2023/09/14 05:03:30;;;;;;;0.93;0.85;;;;;;;13.46;100.00;99130.47;4133676;28;20252;-46
2023/09/14 05:05:32;;;;;;;0.85;0.70;;;;;;;13.47;100.00;99123.88;4101690;28;20257;-46
2023/09/14 05:07:34;;;;;;;1.13;1.02;;;;;;;13.44;100.00;99129.88;4133996;28;20221;-47
2023/09/14 05:09:36;;;;;;;0.77;0.77;;;;;;;13.44;100.00;99121.63;4115056;28;20237;-47
2023/09/14 05:11:37;;;;;;;1.30;1.05;;;;;;;13.47;100.00;99132.13;4131406;28;20206;-46
2023/09/14 05:13:39;;;;;;;2.03;0.95;;;;;;;13.47;100.00;99137.63;4115481;28;20257;-46
2023/09/14 05:15:41;;;;;;;1.17;1.08;;;;;;;13.26;100.00;99134.84;4118447;28;21702;-46
2023/09/14 05:17:43;;;;;;;0.80;0.80;;;;;;;13.12;100.00;99141.75;4128853;28;20297;-46
2023/09/14 05:19:45;;;;;;;0.85;0.85;;;;;;;13.08;100.00;99140.59;4137709;28;20755;-46
2023/09/14 05:21:47;;;;;;;0.75;0.75;;;;;;;13.16;100.00;99145.69;4135471;28;20256;-48
2023/09/14 05:23:48;;;;;;;0.43;0.43;;;;;;;13.18;100.00;99144.31;4131744;28;20364;-48
2023/09/14 05:25:50;;;;;;;0.65;0.65;;;;;;;13.29;100.00;99146.16;4130490;28;20646;-46
2023/09/14 05:27:52;;;;;;;1.45;0.90;;;;;;;13.22;100.00;99145.50;4133242;28;20221;-50
2023/09/14 05:29:54;;;;;;;0.63;0.63;;;;;;;13.23;100.00;99147.16;4119747;28;20237;-48
2023/09/14 05:31:56;;;;;;;0.63;0.63;;;;;;;13.17;100.00;99159.16;4118261;28;20214;-45
2023/09/14 05:33:58;;;;;;;0.88;0.88;;;;;;;13.19;100.00;99148.75;4119337;28;20642;-46
2023/09/14 05:35:59;;;;;;;1.63;1.52;;;;;;;13.17;100.00;99148.16;4103691;28;20200;-47
2023/09/14 05:38:01;;;;;;;1.30;1.25;;;;;;;13.23;100.00;99149.91;4134049;28;20218;-48
2023/09/14 05:40:12;;;;;;;0.80;0.80;;;;;;;13.24;100.00;99148.81;4130920;28;20222;-47
2023/09/14 05:42:14;;;;;;;0.60;0.60;;;;;;;13.23;100.00;99151.84;4117917;28;20299;-46
2023/09/14 05:44:15;;;;;;;1.13;1.02;;;;;;;13.25;100.00;99158.72;4112199;28;20748;-48
2023/09/14 05:46:17;;;;;;;0.82;0.82;;;;;;;13.29;100.00;99157.16;4116192;28;20510;-46
2023/09/14 05:48:19;;;;;;;1.13;0.65;;;;;;;13.30;100.00;99153.31;4121175;28;20216;-47
2023/09/14 05:50:21;;;;;;;1.17;1.15;;;;;;;13.30;100.00;99150.56;4117365;28;20217;-47
2023/09/14 05:52:23;;;;;;;1.55;1.45;;;;;;;13.32;100.00;99156.66;4131625;28;20205;-48
2023/09/14 05:54:25;;;;;;;1.77;1.23;;;;;;;13.37;100.00;99148.47;4116467;28;20230;-47
2023/09/14 05:56:27;;;;;;;5.72;1.10;;;;;;;13.40;100.00;99153.47;4117507;28;20206;-46
2023/09/14 05:58:28;;;;;;;0.65;0.65;;;;;;;13.42;100.00;99151.31;4117281;28;20296;-48
2023/09/14 06:00:30;;;;;;;0.95;0.93;;;;;;;13.32;100.00;99150.31;4133750;28;20268;-46
2023/09/14 06:02:32;;;;;;;0.70;0.70;;;;;;;13.49;100.00;99151.94;4111091;28;22311;-48
2023/09/14 06:04:34;;;;;;;0.70;0.70;;;;;;;13.47;100.00;99148.63;4131827;28;20703;-46
2023/09/14 06:06:39;;;;;;;3.58;1.20;;;;;;;13.73;100.00;99152.56;4123690;28;20221;-46
2023/09/14 06:08:41;;;;;;;0.65;0.65;;;;;;;13.63;100.00;99150.50;4128690;28;20210;-47
2023/09/14 06:10:43;;;;;;;0.73;0.73;;;;;;;13.36;100.00;99148.75;4127667;28;20912;-46
2023/09/14 06:12:45;;;;;;;1.15;1.08;;;;;;;13.59;100.00;99152.13;4097260;28;20553;-46
2023/09/14 06:14:46;;;;;;;0.80;0.80;;;;;;;13.97;100.00;99149.28;4116197;28;20265;-47
2023/09/14 06:16:48;;;;;;;0.73;0.73;;;;;;;14.20;100.00;99149.06;4131563;28;20209;-47
2023/09/14 06:18:50;;;;;;;0.70;0.68;;;;;;;14.56;100.00;99153.88;4119341;28;20261;-48
2023/09/14 06:20:55;;;;;;;0.80;0.80;;;;;;;14.81;100.00;99145.84;4117795;28;20728;-48
2023/09/14 06:22:57;;;;;;;0.70;0.70;;;;;;;15.25;100.00;99152.84;4117158;28;20214;-48
2023/09/14 06:24:58;;;;;;;0.60;0.60;;;;;;;15.33;97.59;99155.13;4112619;28;20233;-46
2023/09/14 06:27:00;;;;;;;0.63;0.63;;;;;;;15.55;97.50;99157.78;4114427;28;20292;-47
2023/09/14 06:29:02;;;;;;;0.40;0.40;;;;;;;15.83;96.71;99165.66;4115990;28;20564;-46
2023/09/14 06:31:04;;;;;;;1.00;0.70;;;;;;;15.87;95.89;99162.09;4135631;28;20206;-46
2023/09/14 06:33:07;;;;;;;0.85;0.85;;;;;;;16.63;94.47;99164.06;4124627;28;20217;-48
2023/09/14 06:35:10;;;;;;;3.40;0.60;;;;;;;17.37;90.00;99162.47;4121752;28;20250;-49
2023/09/14 06:37:12;;;;;;;1.20;1.05;;;;;;;17.68;85.55;99158.56;4138771;28;20197;-46
2023/09/14 06:39:15;;;;;;;0.60;0.60;;;;;;;18.19;83.51;99157.31;4199410;23;20240;-89
2023/09/14 06:41:26;;;;;;;1.20;0.50;;;;;;;18.23;80.68;99161.16;4135073;28;20248;-88
2023/09/14 06:43:27;;;;;;;0.50;0.50;;;;;;;18.76;79.59;99160.34;4163529;28;20225;-89
2023/09/14 06:45:30;;;;;;;10.52;0.70;;;;;;;18.87;76.59;99159.16;4167237;28;20312;-89
2023/09/14 06:47:38;;;;;;;0.60;0.60;;;;;;;18.72;74.58;99164.81;4131229;28;20226;-88
2023/09/14 06:49:45;;;;;;;0.30;0.30;;;;;;;19.18;77.16;99163.38;4153808;28;20205;-88
2023/09/14 06:51:49;;;;;;;0.50;0.50;;;;;;;19.68;73.77;99163.78;4137298;28;20209;-92
2023/09/14 06:53:56;;;;;;;0.55;0.55;;;;;;;19.85;71.73;99169.69;4137727;28;20199;-90
2023/09/14 06:56:10;;;;;;;0.65;0.60;;;;;;;20.02;70.86;99174.78;4164258;28;20200;-89
2023/09/14 06:58:23;;;;;;;0.43;0.40;;;;;;;19.89;71.89;99172.72;4171393;28;20223;-88
2023/09/14 07:00:32;;;;;;;0.60;0.60;;;;;;;20.23;70.32;99179.03;4124569;28;20241;-90
2023/09/14 07:02:34;;;;;;;1.13;1.10;;;;;;;19.81;69.34;99174.19;4166364;28;20224;-89
2023/09/14 07:04:38;;;;;;;0.75;0.70;;;;;;;20.53;68.10;99181.44;4129684;28;20249;-89
2023/09/14 07:06:52;;;;;;;1.25;0.57;;;;;;;19.65;69.53;99174.66;4144157;28;20225;-87
2023/09/14 07:09:06;;;;;;;0.30;0.30;;;;;;;19.89;70.92;99181.06;4154653;28;20224;-89
2023/09/14 07:11:29;;;;;;;0.63;0.63;;;;;;;19.55;69.85;99158.91;4153146;28;20231;-88
2023/09/14 07:13:31;;;;;;;4.15;0.80;;;;;;;18.89;70.68;99165.25;4140290;28;20234;-88
2023/09/14 07:15:36;;;;;;;0.90;0.70;;;;;;;18.51;74.34;99174.38;4130882;28;20221;-89
2023/09/14 07:17:42;;;;;;;1.02;1.02;;;;;;;19.53;72.84;99171.44;4107029;28;20289;-87
2023/09/14 07:19:48;;;;;;;0.35;0.35;;;;;;;18.80;72.18;99178.06;4110446;28;20208;-88
2023/09/14 07:21:50;;;;;;;0.98;0.50;;;;;;;19.33;72.16;99177.16;4137567;28;20233;-88
2023/09/14 07:24:00;;;;;;;0.50;0.50;;;;;;;18.23;71.27;99178.63;4137343;28;20197;-86
2023/09/14 07:26:05;;;;;;;1.35;0.60;;;;;;;18.76;73.16;99177.81;4132697;28;20281;-87
2023/09/14 07:28:12;;;;;;;0.68;0.60;;;;;;;19.30;70.46;99172.16;4135122;28;20256;-88
2023/09/14 07:30:20;;;;;;;0.98;0.70;;;;;;;18.76;72.53;99179.75;4152578;28;20252;-86
2023/09/14 07:32:25;;;;;;;3.63;0.45;;;;;;;18.47;72.15;99178.81;4119411;28;20302;-88
2023/09/14 07:34:28;;;;;;;1.15;0.60;;;;;;;19.31;71.77;99173.84;4131577;28;20674;-87
2023/09/14 07:36:40;;;;;;;0.57;0.50;;;;;;;19.70;69.66;99171.78;4129121;28;20237;-89
2023/09/14 07:38:41;;;;;;;0.30;0.30;;;;;;;19.74;69.44;99175.66;4147731;28;20244;-88
2023/09/14 07:40:51;;;;;;;1.42;0.60;;;;;;;19.27;70.43;99183.88;4148000;28;20205;-88
2023/09/14 07:42:53;;;;;;;0.40;0.40;;;;;;;18.68;68.57;99185.91;4148682;28;20233;-86
2023/09/14 07:45:03;;;;;;;3.17;0.82;;;;;;;19.75;70.18;99180.09;4127902;28;20202;-87
2023/09/14 07:47:05;;;;;;;0.75;0.75;;;;;;;19.27;68.91;99189.41;4128850;28;20223;-88
2023/09/14 07:49:06;;;;;;;0.40;0.40;;;;;;;19.76;68.25;99187.28;4109442;28;20199;-87
2023/09/14 07:51:08;;;;;;;2.28;1.10;;;;;;;19.54;67.14;99186.97;4126091;28;20780;-87
2023/09/14 07:53:10;;;;;;;0.50;0.50;;;;;;;20.51;66.67;99194.81;4147759;28;20802;-88
2023/09/14 07:55:12;;;;;;;1.10;0.93;;;;;;;19.50;65.28;99188.66;4132668;28;20206;-85
2023/09/14 07:57:14;;;;;;;1.50;1.40;;;;;;;19.86;64.76;99195.53;4134840;28;20285;-90
2023/09/14 07:59:16;;;;;;;0.28;0.28;;;;;;;18.99;66.43;99198.47;4122508;28;20202;-87
2023/09/14 08:01:18;;;;;;;0.20;0.20;;;;;;;19.12;67.35;99197.84;4153790;28;20212;-86
2023/09/14 08:03:20;;;;;;;2.38;0.63;;;;;;;19.86;66.53;99203.88;4155134;28;20233;-87
2023/09/14 08:05:31;;;;;;;2.20;1.13;;;;;;;19.34;65.38;99193.53;4122464;28;20265;-87
2023/09/14 08:07:33;;;;;;;0.45;0.45;;;;;;;19.83;65.85;99196.09;4136250;28;20224;-87
2023/09/14 08:09:34;;;;;;;0.55;0.55;;;;;;;18.98;68.39;99194.06;4134526;28;20206;-88
2023/09/14 08:11:37;;;;;;;0.95;0.80;;;;;;;19.90;67.47;99193.84;4133626;28;20209;-90
2023/09/14 08:13:39;;;;;;;0.57;0.40;;;;;;;19.45;65.27;99197.84;4150799;28;20209;-90
2023/09/14 08:15:41;;;;;;;1.50;1.15;;;;;;;18.66;65.85;99191.72;4132305;28;20688;-86
2023/09/14 08:17:44;;;;;;;0.60;0.60;;;;;;;19.33;66.75;99191.03;4112575;28;20207;-86
2023/09/14 08:19:46;;;;;;;12.85;0.73;;;;;;;19.45;64.86;99194.28;4128907;28;20206;-87
2023/09/14 08:21:48;;;;;;;1.02;0.80;;;;;;;19.14;65.14;99195.59;4134207;28;20256;-87
2023/09/14 08:23:50;;;;;;;0.63;0.63;;;;;;;19.59;63.72;99195.25;4113708;28;20213;-86
2023/09/14 08:25:57;;;;;;;0.40;0.40;;;;;;;19.59;65.79;99187.72;4164144;28;20216;-87
2023/09/14 08:28:02;;;;;;;0.45;0.45;;;;;;;20.90;63.48;99187.09;4126208;28;20231;-89
2023/09/14 08:30:06;;;;;;;0.68;0.60;;;;;;;20.96;62.80;99191.41;4109785;28;20216;-87
2023/09/14 08:32:08;;;;;;;4.78;0.63;;;;;;;20.11;61.47;99195.31;4114375;28;20238;-86
2023/09/14 08:34:10;;;;;;;5.53;1.55;;;;;;;19.84;63.93;99195.00;4127650;28;20277;-88
2023/09/14 08:36:11;;;;;;;0.28;0.28;;;;;;;20.18;63.12;99195.78;4111361;28;20210;-88
2023/09/14 08:38:13;;;;;;;2.47;1.20;;;;;;;20.44;61.65;99203.50;4127813;28;20201;-87
2023/09/14 08:40:15;;;;;;;0.63;0.47;;;;;;;20.49;61.49;99197.88;4126160;28;20297;-86
2023/09/14 08:42:19;;;;;;;0.32;0.32;;;;;;;20.67;61.76;99196.25;4129904;28;20320;-87
2023/09/14 08:44:22;;;;;;;0.60;0.60;;;;;;;20.13;61.96;99196.69;4131480;28;20987;-87
2023/09/14 08:46:33;;;;;;;0.35;0.32;;;;;;;21.33;61.59;99199.75;4130404;28;20213;-88
2023/09/14 08:48:37;;;;;;;2.42;0.32;;;;;;;20.97;59.07;99195.88;4128704;28;20221;-87
2023/09/14 08:50:40;;;;;;;1.20;0.73;;;;;;;20.04;61.68;99194.81;4128974;28;20205;-87
2023/09/14 08:52:42;;;;;;;2.53;0.73;;;;;;;20.34;60.65;99205.59;4128757;28;20680;-86
2023/09/14 08:54:44;;;;;;;0.82;0.80;;;;;;;20.69;60.79;99197.63;4144363;28;20272;-87
2023/09/14 08:56:56;;;;;;;0.70;0.30;;;;;;;20.83;60.14;99195.75;4125611;28;20355;-86
2023/09/14 08:59:01;;;;;;;0.50;0.45;;;;;;;20.36;59.97;99197.78;4112615;28;20671;-86
2023/09/14 09:01:03;;;;;;;0.40;0.40;;;;;;;20.99;60.65;99190.81;4143144;28;20204;-85
2023/09/14 09:03:05;;;;;;;0.43;0.30;;;;;;;20.85;61.96;99198.25;4124614;28;20594;-88
2023/09/14 09:05:07;;;;;;;0.30;0.30;;;;;;;22.42;58.22;99185.78;4161469;28;20656;-86
2023/09/14 09:07:09;;;;;;;3.13;1.67;;;;;;;21.11;58.49;99205.13;4138693;28;20249;-86
2023/09/14 09:09:14;;;;;;;1.80;1.25;;;;;;;21.56;60.51;99190.44;4135974;28;20205;-87
2023/09/14 09:11:19;;;;;;;0.28;0.28;;;;;;;21.72;59.32;99201.06;4140857;28;20205;-85
2023/09/14 09:13:22;;;;;;;0.73;0.52;;;;;;;21.95;57.62;99188.09;4126533;28;20312;-87
2023/09/14 09:15:26;;;;;;;0.93;0.63;;;;;;;22.68;57.03;99191.66;4126296;28;20206;-87
2023/09/14 09:17:44;;;;;;;6.22;1.83;;;;;;;21.67;56.73;99191.97;4143934;28;20336;-88
2023/09/14 09:19:52;;;;;;;0.50;0.50;;;;;;;21.76;57.89;99190.13;4141971;28;20759;-84
2023/09/14 09:21:54;;;;;;;0.40;0.40;;;;;;;22.57;57.11;99182.69;4128998;28;20692;-88
2023/09/14 09:23:57;;;;;;;0.70;0.47;;;;;;;22.38;55.83;99181.13;4126415;28;20301;-87
2023/09/14 09:26:00;;;;;;;0.43;0.43;;;;;;;22.21;57.67;99186.47;4121721;28;20209;-88
2023/09/14 09:28:03;;;;;;;0.40;0.40;;;;;;;22.08;57.38;99187.28;4127578;28;20221;-87
2023/09/14 09:30:08;;;;;;;2.60;1.42;;;;;;;22.08;56.25;99187.28;4128613;28;20331;-86
2023/09/14 09:32:20;;;;;;;0.57;0.55;;;;;;;21.67;57.04;99183.59;4127910;28;20340;-87
2023/09/14 09:34:28;;;;;;;3.53;0.80;;;;;;;21.21;57.83;99182.69;4110973;28;20240;-87
2023/09/14 09:36:30;;;;;;;0.30;0.30;;;;;;;21.70;59.15;99180.22;4143360;28;20250;-88
2023/09/14 09:38:36;;;;;;;2.65;0.63;;;;;;;22.02;57.95;99178.22;4110877;28;20206;-87
2023/09/14 09:40:45;;;;;;;0.50;0.50;;;;;;;22.44;58.07;99180.72;4113305;28;20719;-88
2023/09/14 09:42:48;;;;;;;0.38;0.28;;;;;;;22.99;55.04;99175.88;4131303;28;20616;-87